Airport View

Enter AWOS ICAO identifier for current METAR.

ex. KFNL

KRKW 100435Z AUTO 18006KT 10SM BKN080 20/20 A2997 RMK A01

10 Jul 2020 04:44

Frequency: 118.775

Phone: 865-354-9262

Other Area AWOS: KCSV - KOQT - KMNV - K2A0

TAF KCSV 092320Z 1000/1024 22003KT P6SM VCTS SCT050CB FM100200 00000KT P6SM FEW050 FM100700 00000KT 4SM BR FEW030 FM101300 28007KT P6SM VCTS SCT050CB PROB30 1017/1021 5SM -TSRA BKN050CB